TAF KGRK 230800Z 2308/2414 VRB06KT 9999 SKC QNH2991INS
TEMPO 2319/2321 10010G15KT TX36/2321Z TN22/2312Z
From batch tds/tafs/production/2022/9/23/h07_m59_tafs.cache.xml
Issued (12 days ago)
Forecasts
2308/2414 VRB06KT P6SM SKC

---
altim_in_hg: '29.91142'
fcst_time_to: '2022-09-24T14:00:00Z'
sky_condition:
- sky_cover: SKC
wind_speed_kt: '6'
fcst_time_from: '2022-09-23T08:00:00Z'
wind_dir_degrees: '0'
visibility_statute_mi: '6.21'

TEMPO 2319/2321 10010G15KT

---
fcst_time_to: '2022-09-23T21:00:00Z'
wind_gust_kt: '15'
wind_speed_kt: '10'
fcst_time_from: '2022-09-23T19:00:00Z'
change_indicator: TEMPO
wind_dir_degrees: '100'

talk